Time;durP1;ratioP1;P1;durP2;ratioP2;P2;SDS_P1;SDS_P2;PMS_P1;PMS_P2;Temp;Humidity;BMP_temperature;BMP_pressure;BME280_temperature;BME280_humidity;BME280_pressure;Samples;Min_cycle;Max_cycle;Signal;HPM_P1;HPM_P2
2023/03/13 04:54:23;;;;;;;;;0.00;0.00;;;;;18.06;48.05;100238.06;5096353;27;45893;-69
2023/03/13 04:56:49;;;;;;;;;1.00;0.00;;;;;18.52;49.63;100236.38;5089132;27;45573;-70
2023/03/13 04:59:14;;;;;;;;;0.00;0.00;;;;;19.24;49.92;100228.69;5088293;27;45520;-70
2023/03/13 05:01:41;;;;;;;;;0.00;0.00;;;;;20.06;49.64;100236.66;5088536;27;45470;-70
2023/03/13 05:04:07;;;;;;;;;1.00;1.00;;;;;20.91;49.13;100243.22;5089995;27;45667;-71
2023/03/13 05:06:33;;;;;;;;;0.67;0.67;;;;;21.66;48.26;100240.63;5091536;27;45486;-69
2023/03/13 05:08:58;;;;;;;;;0.33;0.33;;;;;22.37;47.11;100242.78;5090120;27;45365;-69
2023/03/13 05:11:23;;;;;;;;;1.67;1.00;;;;;23.02;46.48;100242.75;5089952;27;45497;-69
2023/03/13 05:13:49;;;;;;;;;0.00;0.00;;;;;23.55;45.59;100241.28;5089783;27;45613;-71
2023/03/13 05:16:14;;;;;;;;;0.33;0.00;;;;;24.10;44.34;100243.06;5088471;27;45550;-71
2023/03/13 05:18:40;;;;;;;;;0.00;0.00;;;;;24.55;43.79;100243.06;5090191;27;45461;-71
2023/03/13 05:21:06;;;;;;;;;0.00;0.00;;;;;24.93;43.09;100237.53;5090123;27;45520;-70
2023/03/13 05:23:32;;;;;;;;;1.00;1.00;;;;;25.28;42.60;100228.72;5090075;27;47046;-71
2023/03/13 05:25:58;;;;;;;;;0.67;0.67;;;;;25.58;42.21;100222.38;5088925;27;45533;-70
2023/03/13 05:28:24;;;;;;;;;0.00;0.00;;;;;25.84;41.34;100229.06;5087280;27;45467;-71
2023/03/13 05:30:49;;;;;;;;;0.00;0.00;;;;;26.01;40.99;100216.00;5088403;27;45425;-70
2023/03/13 05:33:14;;;;;;;;;0.00;0.00;;;;;26.29;40.81;100228.78;5090106;27;46575;-72
2023/03/13 05:35:41;;;;;;;;;1.00;1.00;;;;;26.47;40.13;100227.41;5090522;27;45450;-72
2023/03/13 05:38:06;;;;;;;;;0.00;0.00;;;;;26.64;40.15;100222.50;5090301;27;45437;-71
2023/03/13 05:40:32;;;;;;;;;0.00;0.00;;;;;26.74;39.75;100205.78;5090090;27;45755;-71
2023/03/13 05:42:58;;;;;;;;;0.00;0.00;;;;;26.88;39.48;100212.94;5089966;27;46043;-72
2023/03/13 05:45:24;;;;;;;;;0.67;0.67;;;;;26.99;38.77;100202.53;5090154;27;45369;-70
2023/03/13 05:47:49;;;;;;;;;1.33;0.33;;;;;27.15;38.47;100204.91;5088518;27;45884;-70
2023/03/13 05:50:15;;;;;;;;;1.00;1.00;;;;;27.22;38.34;100208.44;5089230;27;45471;-73
2023/03/13 05:52:40;;;;;;;;;0.33;0.33;;;;;27.29;38.23;100203.03;5087269;27;47100;-71
2023/03/13 05:55:06;;;;;;;;;0.00;0.00;;;;;27.43;38.33;100212.03;5090067;27;45782;-71
2023/03/13 05:57:31;;;;;;;;;0.00;0.00;;;;;27.51;37.91;100212.91;5092182;27;45478;-74
2023/03/13 05:59:56;;;;;;;;;1.00;1.00;;;;;27.59;37.46;100216.25;5079616;27;45491;-71
2023/03/13 06:02:22;;;;;;;;;0.00;0.00;;;;;27.64;37.90;100193.00;5084010;27;48676;-70
2023/03/13 06:04:47;;;;;;;;;1.67;1.67;;;;;27.72;37.19;100207.25;5079128;27;45486;-70
2023/03/13 06:07:12;;;;;;;;;0.00;0.00;;;;;27.72;37.45;100204.53;5074417;27;45661;-70
2023/03/13 06:09:39;;;;;;;;;0.00;0.00;;;;;27.80;37.33;100200.78;5074412;27;45547;-72
2023/03/13 06:12:06;;;;;;;;;0.00;0.00;;;;;27.84;37.23;100193.00;5074624;27;46258;-75
2023/03/13 06:14:31;;;;;;;;;0.00;0.00;;;;;27.90;36.89;100210.44;5070870;27;45533;-72
2023/03/13 06:16:56;;;;;;;;;1.00;1.00;;;;;27.92;36.95;100205.59;5074018;27;45701;-75
2023/03/13 06:19:23;;;;;;;;;0.00;0.00;;;;;27.92;36.44;100202.88;5073945;27;45530;-78
2023/03/13 06:21:48;;;;;;;;;0.33;0.33;;;;;27.92;36.51;100194.69;5077024;27;45828;-80
2023/03/13 06:24:14;;;;;;;;;1.00;1.00;;;;;27.89;35.86;100182.31;5074934;27;45577;-78
2023/03/13 06:26:39;;;;;;;;;0.00;0.00;;;;;27.88;36.03;100178.72;5074111;27;45523;-81
2023/03/13 06:29:04;;;;;;;;;1.00;1.00;;;;;27.87;35.57;100174.34;5072872;27;49365;-80
2023/03/13 06:31:30;;;;;;;;;0.67;0.67;;;;;27.87;36.08;100177.06;5074699;27;49027;-81
2023/03/13 06:33:55;;;;;;;;;2.00;0.67;;;;;27.88;35.55;100183.38;5073675;27;45438;-82
2023/03/13 06:36:22;;;;;;;;;2.00;2.00;;;;;27.87;35.17;100176.22;5072748;27;45472;-79
2023/03/13 06:38:47;;;;;;;;;1.00;1.00;;;;;27.88;34.91;100183.38;5074610;27;45612;-77
2023/03/13 06:41:13;;;;;;;;;1.00;1.00;;;;;27.87;35.05;100190.69;5068068;27;45417;-77
2023/03/13 06:43:39;;;;;;;;;1.00;1.00;;;;;27.85;35.29;100200.13;5068036;27;45572;-77
2023/03/13 06:46:06;;;;;;;;;0.33;0.33;;;;;27.83;34.71;100191.34;5077343;27;45500;-75
2023/03/13 06:48:32;;;;;;;;;0.33;0.33;;;;;27.86;35.22;100185.44;5068932;27;45545;-75
2023/03/13 06:50:57;;;;;;;;;1.00;1.00;;;;;27.86;35.13;100182.72;5068962;27;46837;-75
2023/03/13 06:53:22;;;;;;;;;2.00;0.67;;;;;27.83;35.11;100175.81;5070286;27;47918;-75
2023/03/13 06:55:48;;;;;;;;;1.33;1.33;;;;;27.84;34.88;100174.75;5065801;27;45532;-75
2023/03/13 06:58:14;;;;;;;;;0.00;0.00;;;;;27.85;34.72;100175.59;5051970;28;45371;-75
2023/03/13 07:00:41;;;;;;;;;0.33;0.33;;;;;27.83;34.01;100169.53;5069864;27;46602;-75
2023/03/13 07:03:06;;;;;;;;;1.33;0.00;;;;;27.82;34.77;100156.91;5069359;27;45844;-74
2023/03/13 07:05:32;;;;;;;;;2.33;2.00;;;;;27.75;34.15;100159.69;5071132;27;45409;-74
2023/03/13 07:07:57;;;;;;;;;1.33;1.00;;;;;27.79;34.66;100152.72;5062416;27;45411;-74
2023/03/13 07:10:22;;;;;;;;;3.00;1.00;;;;;27.78;34.43;100150.25;5072236;27;45499;-72
2023/03/13 07:12:48;;;;;;;;;2.33;2.00;;;;;27.75;34.69;100152.31;5075068;27;45490;-75
2023/03/13 07:15:13;;;;;;;;;2.00;2.00;;;;;27.78;34.17;100155.69;5082694;27;45564;-80
2023/03/13 07:17:38;;;;;;;;;5.00;3.00;;;;;27.79;34.14;100146.47;5069383;27;45720;-74
2023/03/13 07:20:05;;;;;;;;;2.33;1.00;;;;;27.78;34.08;100144.78;5071952;27;46466;-76
2023/03/13 07:22:31;;;;;;;;;4.00;2.00;;;;;27.83;34.11;100132.19;5070099;27;45450;-76
2023/03/13 07:24:56;;;;;;;;;2.00;2.00;;;;;27.83;34.53;100128.63;5074539;27;45350;-76
2023/03/13 07:27:22;;;;;;;;;1.00;1.00;;;;;27.86;34.41;100133.63;5074986;27;45431;-76
2023/03/13 07:29:47;;;;;;;;;3.00;0.67;;;;;27.86;34.47;100130.91;5074564;27;46860;-76
2023/03/13 07:32:13;;;;;;;;;3.67;2.33;;;;;27.84;34.16;100131.13;5073942;27;45374;-76
2023/03/13 07:34:38;;;;;;;;;1.33;1.33;;;;;27.84;34.20;100127.56;5072298;27;45364;-76
2023/03/13 07:37:04;;;;;;;;;2.00;2.00;;;;;27.85;33.98;100123.78;5074263;27;45661;-76
2023/03/13 07:39:29;;;;;;;;;3.33;1.00;;;;;27.80;34.04;100116.25;5080168;27;46188;-76
2023/03/13 07:41:54;;;;;;;;;1.00;1.00;;;;;27.84;34.14;100120.22;5074207;27;45469;-76
2023/03/13 07:44:19;;;;;;;;;2.00;2.00;;;;;27.83;33.35;100118.53;5074519;27;45446;-76
2023/03/13 07:46:47;;;;;;;;;3.00;2.00;;;;;27.83;34.12;100115.81;5069534;27;45474;-76
2023/03/13 07:49:13;;;;;;;;;4.00;2.00;;;;;27.82;33.75;100118.75;5074308;27;46959;-76
2023/03/13 07:51:38;;;;;;;;;2.00;2.00;;;;;27.83;33.65;100115.81;5073497;27;45813;-76
2023/03/13 07:54:03;;;;;;;;;3.00;2.00;;;;;27.80;33.70;100116.25;5074392;27;45670;-76
2023/03/13 07:56:29;;;;;;;;;2.00;2.00;;;;;27.80;33.30;100118.13;5069085;27;45324;-76
2023/03/13 07:58:54;;;;;;;;;3.00;1.00;;;;;27.77;33.24;100105.78;5067160;28;46153;-76
2023/03/13 08:01:22;;;;;;;;;1.00;1.00;;;;;27.79;33.15;100102.84;5072339;27;45465;-76
2023/03/13 08:03:51;;;;;;;;;1.00;1.00;;;;;27.78;33.35;100104.72;5072312;27;45391;-77
2023/03/13 08:06:22;;;;;;;;;1.33;1.00;;;;;27.77;33.24;100104.91;5073356;27;45647;-76
2023/03/13 08:08:48;;;;;;;;;0.67;0.67;;;;;27.76;33.65;100106.81;5071309;27;45915;-76
2023/03/13 08:11:23;;;;;;;;;1.00;1.00;;;;;27.74;33.05;100090.69;5072658;27;45579;-77
2023/03/13 08:13:49;;;;;;;;;1.00;1.00;;;;;27.75;33.08;100095.06;5071925;27;45478;-76
2023/03/13 08:16:23;;;;;;;;;4.00;2.67;;;;;27.74;33.45;100092.56;5071942;28;45918;-76
2023/03/13 08:18:51;;;;;;;;;1.00;1.00;;;;;27.73;32.98;100091.75;5071388;27;45548;-76
2023/03/13 08:21:20;;;;;;;;;1.00;1.00;;;;;27.74;33.39;100074.31;5073811;27;45421;-76
2023/03/13 08:23:46;;;;;;;;;1.00;1.00;;;;;27.74;33.42;100079.78;5069971;27;45467;-76
2023/03/13 08:26:19;;;;;;;;;2.33;1.00;;;;;27.71;32.85;100077.47;5072572;27;45394;-76
2023/03/13 08:28:47;;;;;;;;;1.00;1.00;;;;;27.73;32.89;100075.38;5073507;27;46373;-75
2023/03/13 08:31:24;;;;;;;;;3.00;2.00;;;;;27.69;33.34;100071.41;5069305;27;45594;-72
2023/03/13 08:33:50;;;;;;;;;2.33;2.00;;;;;27.71;32.85;100068.47;5069364;27;45502;-74
2023/03/13 08:36:27;;;;;;;;;2.00;2.00;;;;;27.67;32.72;100068.03;5073154;27;45425;-73
2023/03/13 08:38:56;;;;;;;;;1.00;1.00;;;;;27.70;32.88;100081.25;5077464;27;45564;-73
2023/03/13 08:41:24;;;;;;;;;0.67;0.67;;;;;27.70;33.50;100062.16;5059381;27;45415;-74
2023/03/13 08:43:52;;;;;;;;;0.33;0.33;;;;;27.70;33.77;100069.50;5048672;27;45566;-74
2023/03/13 08:46:18;;;;;;;;;2.00;1.00;;;;;27.72;33.78;100065.50;5056765;28;45561;-74
2023/03/13 08:48:43;;;;;;;;;1.00;1.00;;;;;27.74;33.54;100068.88;5049617;28;45636;-73
2023/03/13 08:51:12;;;;;;;;;1.33;1.33;;;;;27.76;32.96;100071.38;5060955;27;46778;-72
2023/03/13 08:53:39;;;;;;;;;1.00;1.00;;;;;27.78;32.83;100071.19;5073368;28;45473;-72
2023/03/13 08:56:06;;;;;;;;;1.00;1.00;;;;;27.78;33.68;100054.81;5071489;28;45609;-74
2023/03/13 08:58:31;;;;;;;;;3.67;2.33;;;;;27.79;33.33;100059.22;5072660;28;46305;-73
2023/03/13 09:01:02;;;;;;;;;2.00;1.00;;;;;27.82;33.29;100056.03;5073122;27;45450;-73
2023/03/13 09:03:28;;;;;;;;;1.67;0.33;;;;;27.80;33.38;100044.53;5073396;27;45280;-72
2023/03/13 09:05:55;;;;;;;;;2.00;2.00;;;;;27.82;33.32;100045.13;5072387;27;45448;-72
2023/03/13 09:08:20;;;;;;;;;2.00;1.00;;;;;27.82;33.58;100039.69;5067845;27;45459;-72
2023/03/13 09:10:45;;;;;;;;;1.33;1.33;;;;;27.83;32.83;100046.84;5072983;28;45382;-74
2023/03/13 09:13:10;;;;;;;;;1.00;1.00;;;;;27.81;32.73;100036.13;5072952;27;45481;-76
2023/03/13 09:15:36;;;;;;;;;1.00;1.00;;;;;27.83;33.32;100027.75;5073063;28;45482;-75
2023/03/13 09:18:02;;;;;;;;;1.00;1.00;;;;;27.80;33.06;100014.53;5070063;27;45577;-75
2023/03/13 09:20:27;;;;;;;;;1.33;1.33;;;;;27.82;33.24;100021.44;5070216;27;45461;-75
2023/03/13 09:22:52;;;;;;;;;2.00;2.00;;;;;27.84;33.33;100019.31;5084203;27;45419;-76
2023/03/13 09:25:18;;;;;;;;;2.00;2.00;;;;;27.88;33.43;100003.41;5071114;27;45693;-75
2023/03/13 09:27:43;;;;;;;;;1.00;1.00;;;;;27.93;33.07;100010.91;5070358;27;49540;-75
2023/03/13 09:30:09;;;;;;;;;1.00;1.00;;;;;27.98;33.18;100000.19;5070831;27;45789;-75
2023/03/13 09:32:34;;;;;;;;;1.00;1.00;;;;;27.99;33.59;100002.72;5068781;27;45457;-75
2023/03/13 09:35:00;;;;;;;;;2.00;2.00;;;;;28.05;32.88;100013.81;5071231;27;45572;-76
2023/03/13 09:37:25;;;;;;;;;1.00;1.00;;;;;28.07;33.35;100007.06;5072612;27;45546;-75
2023/03/13 09:39:51;;;;;;;;;1.00;1.00;;;;;28.10;33.17;100009.38;5072833;27;45466;-75
2023/03/13 09:42:16;;;;;;;;;2.00;2.00;;;;;28.14;33.57;100015.22;5074858;27;45359;-76
2023/03/13 09:44:48;;;;;;;;;1.00;1.00;;;;;28.13;32.97;99998.00;5074160;27;45638;-77
2023/03/13 09:47:26;;;;;;;;;0.67;0.67;;;;;28.19;33.24;100007.22;5069846;27;46714;-76
2023/03/13 09:49:58;;;;;;;;;4.67;3.00;;;;;28.21;32.67;99998.81;5070327;27;45642;-76
2023/03/13 09:52:24;;;;;;;;;0.00;0.00;;;;;28.21;32.90;99990.63;5067202;27;45463;-75
2023/03/13 09:55:01;;;;;;;;;0.67;0.67;;;;;28.21;33.36;99991.50;5068811;28;45895;-75
2023/03/13 09:57:48;;;;;;;;;1.00;1.00;;;;;28.22;33.55;99981.41;5064572;27;46237;-76
2023/03/13 10:00:21;;;;;;;;;1.33;1.33;;;;;28.22;32.80;99976.78;5055067;27;45545;-76
2023/03/13 10:02:59;;;;;;;;;2.00;1.00;;;;;28.19;32.90;99958.13;5068330;28;45673;-76
2023/03/13 10:05:28;;;;;;;;;1.00;1.00;;;;;28.21;33.23;99964.22;5073966;27;45525;-76
2023/03/13 10:08:16;;;;;;;;;1.00;1.00;;;;;28.25;33.56;99975.53;5074465;27;45759;-77
2023/03/13 10:10:46;;;;;;;;;3.00;1.67;;;;;28.26;33.01;99964.41;5074550;28;45402;-76
2023/03/13 10:13:25;;;;;;;;;0.33;0.33;;;;;28.28;33.32;99958.72;5072823;27;45567;-76
2023/03/13 10:15:55;;;;;;;;;2.00;1.00;;;;;28.30;33.62;99961.22;5073976;27;45383;-78
2023/03/13 10:18:23;;;;;;;;;1.00;1.00;;;;;28.31;33.74;99958.28;5074143;27;46378;-77
2023/03/13 10:21:21;;;;;;;;;4.00;2.00;;;;;28.31;33.44;99950.09;5075878;27;45498;-75
2023/03/13 10:23:52;;;;;;;;;1.33;1.00;;;;;28.36;33.29;99949.47;5075028;28;45467;-78
2023/03/13 10:26:29;;;;;;;;;1.67;1.67;;;;;28.36;33.21;99939.34;5074555;27;45458;-77
2023/03/13 10:28:55;;;;;;;;;2.33;1.00;;;;;28.38;33.11;99941.88;5072671;27;45445;-77
2023/03/13 10:31:45;;;;;;;;;2.00;1.00;;;;;28.45;33.65;99944.56;5073381;27;45421;-72
2023/03/13 10:34:13;;;;;;;;;4.00;2.00;;;;;28.46;33.32;99927.97;5062326;27;45552;-74
2023/03/13 10:36:44;;;;;;;;;0.00;0.00;;;;;28.46;32.64;99918.94;5067794;27;45580;-74
2023/03/13 10:39:20;;;;;;;;;1.00;1.00;;;;;28.46;33.38;99919.78;5075340;27;46328;-74
2023/03/13 10:41:47;;;;;;;;;2.00;1.33;;;;;28.38;33.29;99914.59;5074683;27;45476;-72
2023/03/13 10:44:21;;;;;;;;;0.67;0.67;;;;;28.45;32.82;99929.03;5072430;27;45751;-72
2023/03/13 10:46:49;;;;;;;;;1.67;1.67;;;;;28.46;33.05;99917.06;5070729;27;45620;-72
2023/03/13 10:49:18;;;;;;;;;2.00;1.00;;;;;28.47;32.54;99926.91;5081790;27;48349;-73
2023/03/13 10:51:48;;;;;;;;;1.33;1.33;;;;;28.45;32.75;99918.13;5075157;27;45658;-72
2023/03/13 10:54:23;;;;;;;;;1.00;1.00;;;;;28.48;33.24;99919.56;5074140;27;46330;-72
2023/03/13 10:56:50;;;;;;;;;1.00;0.67;;;;;28.46;32.81;99906.13;5074968;27;45489;-74
2023/03/13 10:59:23;;;;;;;;;1.00;1.00;;;;;28.50;33.49;99904.63;5071471;27;46353;-73
2023/03/13 11:01:49;;;;;;;;;1.00;1.00;;;;;28.53;32.97;99900.63;5070427;28;45465;-73
2023/03/13 11:04:30;;;;;;;;;1.67;1.67;;;;;28.53;33.44;99893.25;5070270;28;45320;-73
2023/03/13 11:07:15;;;;;;;;;2.00;2.00;;;;;28.56;33.19;99894.69;5066474;27;45508;-72
2023/03/13 11:09:40;;;;;;;;;1.67;1.00;;;;;28.58;32.89;99889.03;5083361;27;47208;-72
2023/03/13 11:12:16;;;;;;;;;0.00;0.00;;;;;28.56;32.63;99875.59;5073084;27;45483;-72
2023/03/13 11:14:43;;;;;;;;;1.00;1.00;;;;;28.58;32.55;99883.56;5063490;28;45388;-73
2023/03/13 11:17:27;;;;;;;;;1.00;0.67;;;;;28.58;32.52;99884.41;5073190;27;45665;-73
2023/03/13 11:20:05;;;;;;;;;3.00;2.00;;;;;28.57;33.14;99887.34;5074763;27;45483;-74
2023/03/13 11:22:55;;;;;;;;;1.00;1.00;;;;;28.57;32.88;99895.53;5066706;27;45470;-74
2023/03/13 11:25:34;;;;;;;;;2.00;2.00;;;;;28.55;32.58;99906.69;5070408;28;45413;-74
2023/03/13 11:28:05;;;;;;;;;1.00;1.00;;;;;28.54;33.24;99905.00;5074914;27;45478;-74
2023/03/13 11:30:39;;;;;;;;;1.33;1.33;;;;;28.57;32.60;99920.13;5074342;28;45507;-74
2023/03/13 11:33:20;;;;;;;;;1.00;1.00;;;;;28.54;33.39;99897.66;5066877;27;45497;-74
2023/03/13 11:36:01;;;;;;;;;1.00;1.00;;;;;28.60;32.72;99900.56;5073985;27;45322;-74
2023/03/13 11:38:34;;;;;;;;;1.00;1.00;;;;;28.61;33.06;99881.22;5073426;27;45629;-71
2023/03/13 11:41:08;;;;;;;;;1.67;1.00;;;;;28.62;33.40;99895.72;5072246;27;46281;-72
2023/03/13 11:43:52;;;;;;;;;1.00;1.00;;;;;28.63;32.96;99894.66;5073771;27;45378;-72
2023/03/13 11:46:42;;;;;;;;;0.00;0.00;;;;;28.63;33.37;99881.00;5072654;27;45427;-73
2023/03/13 11:49:15;;;;;;;;;3.33;2.00;;;;;28.59;33.35;99863.38;5072010;27;45419;-72
2023/03/13 11:52:05;;;;;;;;;2.00;2.00;;;;;28.66;33.32;99880.56;5073449;27;46387;-72
2023/03/13 11:54:36;;;;;;;;;3.00;1.00;;;;;28.69;32.81;99885.53;5032374;28;45648;-74
2023/03/13 11:57:14;;;;;;;;;1.00;1.00;;;;;28.71;32.70;99893.53;5047203;28;45384;-73
2023/03/13 12:00:05;;;;;;;;;1.00;1.00;;;;;28.73;32.54;99884.03;5031637;28;45571;-72
2023/03/13 12:03:16;;;;;;;;;1.00;1.00;;;;;28.69;32.84;99879.28;5031584;28;45509;-73
2023/03/13 12:05:50;;;;;;;;;0.67;0.67;;;;;28.76;33.22;99878.16;5071877;28;45426;-73
2023/03/13 12:08:26;;;;;;;;;0.33;0.33;;;;;28.76;33.18;99869.09;5066688;27;45373;-73
2023/03/13 12:11:24;;;;;;;;;1.00;1.00;;;;;28.73;32.57;99864.94;5048080;28;45539;-73
2023/03/13 12:14:15;;;;;;;;;1.00;1.00;;;;;28.76;32.44;99863.66;5063926;28;45571;-73
2023/03/13 12:16:46;;;;;;;;;0.67;0.67;;;;;28.75;33.06;99871.03;5062053;28;45514;-74
2023/03/13 12:19:24;;;;;;;;;0.33;0.33;;;;;28.75;32.79;99865.56;5070267;28;46683;-74
2023/03/13 12:21:53;;;;;;;;;0.33;0.00;;;;;28.75;32.55;99840.13;5068675;28;45638;-74
2023/03/13 12:24:40;;;;;;;;;1.00;0.00;;;;;28.76;33.33;99828.16;5060275;28;46123;-74
2023/03/13 12:27:31;;;;;;;;;1.00;1.00;;;;;28.72;33.22;99803.19;5048288;28;45651;-74
2023/03/13 12:30:28;;;;;;;;;1.67;1.67;;;;;28.75;33.16;99810.94;5064464;27;45571;-73
2023/03/13 12:33:17;;;;;;;;;1.00;1.00;;;;;28.74;33.43;99802.97;5049398;28;45576;-73
2023/03/13 12:35:48;;;;;;;;;0.67;0.67;;;;;28.76;33.39;99784.47;5052631;28;45586;-72
2023/03/13 12:38:24;;;;;;;;;1.67;1.67;;;;;28.76;32.83;99787.19;5061702;28;45503;-71
2023/03/13 12:41:23;;;;;;;;;1.00;1.00;;;;;28.72;31.99;99772.34;5051255;28;45700;-73
2023/03/13 12:43:50;;;;;;;;;1.67;1.67;;;;;28.50;32.25;99749.06;5028653;28;45556;-72
2023/03/13 12:46:39;;;;;;;;;0.00;0.00;;;;;28.61;32.22;99765.75;5030914;28;45573;-72
2023/03/13 12:49:26;;;;;;;;;1.33;1.33;;;;;28.56;32.03;99773.78;5032761;28;45766;-72
2023/03/13 12:52:16;;;;;;;;;1.00;1.00;;;;;28.50;31.61;99770.06;5028562;28;45558;-72
2023/03/13 12:55:17;;;;;;;;;0.00;0.00;;;;;28.41;31.93;99753.16;5031953;28;45518;-72
2023/03/13 12:58:09;;;;;;;;;2.00;1.00;;;;;28.39;31.43;99744.34;5056350;28;45555;-72
2023/03/13 13:00:38;;;;;;;;;3.33;2.00;;;;;28.19;32.12;99728.97;5064592;27;45484;-72
2023/03/13 13:03:28;;;;;;;;;2.00;2.00;;;;;28.14;31.84;99715.16;5061500;27;45495;-72
2023/03/13 13:06:12;;;;;;;;;1.00;1.00;;;;;28.17;32.31;99713.88;5055047;28;45816;-72
2023/03/13 13:08:45;;;;;;;;;1.00;1.00;;;;;28.07;32.20;99692.59;5069400;28;46397;-72
2023/03/13 13:11:32;;;;;;;;;1.00;1.00;;;;;28.19;31.63;99695.41;5068271;28;45456;-72
2023/03/13 13:13:57;;;;;;;;;3.00;1.00;;;;;27.98;31.82;99678.41;5067532;27;45548;-72
2023/03/13 13:16:25;;;;;;;;;1.00;1.00;;;;;28.08;31.78;99705.16;5067649;27;45593;-72
2023/03/13 13:18:51;;;;;;;;;1.33;1.33;;;;;27.95;31.56;99693.31;5067809;28;45642;-72
2023/03/13 13:21:17;;;;;;;;;1.33;1.33;;;;;28.11;31.66;99724.63;5073765;28;45931;-72
2023/03/13 13:23:45;;;;;;;;;2.33;2.00;;;;;27.97;31.36;99685.75;5061420;27;45565;-70
2023/03/13 13:26:28;;;;;;;;;1.00;1.00;;;;;28.07;32.03;99678.97;5070306;27;45472;-70
2023/03/13 13:28:55;;;;;;;;;1.33;1.33;;;;;27.85;31.98;99663.84;5055128;27;45402;-72
2023/03/13 15:19:16;;;;;;;;;3.00;3.00;;;;;18.91;41.68;99481.63;5092475;27;46048;-74
2023/03/13 15:21:42;;;;;;;;;3.00;3.00;;;;;19.36;43.05;99500.94;5094748;27;45433;-74
2023/03/13 15:24:12;;;;;;;;;2.00;2.00;;;;;20.04;43.06;99487.13;5087065;27;45336;-74
2023/03/13 15:26:38;;;;;;;;;6.00;1.00;;;;;20.79;43.05;99492.91;5091247;27;45557;-74
2023/03/13 15:29:03;;;;;;;;;2.33;1.33;;;;;21.55;43.25;99493.06;5094087;27;46214;-72
2023/03/13 15:31:29;;;;;;;;;2.67;2.33;;;;;22.22;42.37;99487.72;5090089;27;45424;-73
2023/03/13 15:34:01;;;;;;;;;2.67;1.67;;;;;22.90;41.53;99497.41;5094914;27;45486;-72
2023/03/13 15:36:29;;;;;;;;;1.67;1.67;;;;;23.48;41.14;99485.56;5102380;27;45908;-74
2023/03/13 15:38:55;;;;;;;;;2.00;0.00;;;;;23.99;40.39;99474.56;5090625;27;45461;-73
2023/03/13 15:41:21;;;;;;;;;2.00;2.00;;;;;24.45;39.77;99481.22;5090022;27;45830;-75
2023/03/13 15:43:51;;;;;;;;;3.67;3.67;;;;;24.77;39.29;99476.03;5091392;27;45837;-75
2023/03/13 15:46:18;;;;;;;;;2.00;2.00;;;;;25.20;39.28;99460.38;5093441;27;45686;-78
2023/03/13 15:48:43;;;;;;;;;2.00;2.00;;;;;25.49;38.21;99420.22;5090803;27;46182;-78
2023/03/13 15:51:11;;;;;;;;;2.00;2.00;;;;;25.77;38.37;99419.94;5087776;27;45389;-77
2023/03/13 15:53:36;;;;;;;;;2.00;2.00;;;;;26.01;37.81;99417.53;5100045;27;45454;-78
2023/03/13 15:56:21;;;;;;;;;1.00;1.00;;;;;26.30;37.71;99444.38;5098445;27;45411;-77
2023/03/13 15:58:48;;;;;;;;;2.00;2.00;;;;;26.51;37.14;99445.91;5081025;27;46375;-77
2023/03/13 16:01:15;;;;;;;;;1.00;1.00;;;;;26.70;37.25;99446.00;5092066;27;45440;-75
2023/03/13 16:03:41;;;;;;;;;4.67;1.00;;;;;26.86;37.25;99430.16;5095942;27;45586;-75
2023/03/13 16:06:26;;;;;;;;;2.67;1.00;;;;;27.04;36.58;99418.50;5088662;27;45389;-74
2023/03/13 16:08:52;;;;;;;;;1.00;1.00;;;;;27.17;36.83;99410.19;5092116;27;46774;-76
2023/03/13 16:11:17;;;;;;;;;2.33;2.00;;;;;27.29;36.29;99395.81;5093300;27;45989;-76
2023/03/13 16:13:43;;;;;;;;;1.00;1.00;;;;;27.47;36.49;99403.19;5095395;27;45450;-75
2023/03/13 16:16:18;;;;;;;;;3.00;2.00;;;;;27.59;36.58;99392.34;5085113;27;45525;-75
2023/03/13 16:18:44;;;;;;;;;3.00;2.33;;;;;27.68;36.25;99399.19;5094473;27;45419;-73
2023/03/13 16:21:20;;;;;;;;;3.00;2.00;;;;;27.80;35.70;99391.06;5093066;27;45574;-77
2023/03/13 16:23:46;;;;;;;;;1.33;1.33;;;;;27.89;35.42;99391.56;5108722;27;45482;-76
2023/03/13 16:26:15;;;;;;;;;2.00;2.00;;;;;27.96;35.53;99392.28;5088615;27;45538;-75
2023/03/13 16:28:40;;;;;;;;;2.00;2.00;;;;;28.06;34.97;99396.38;5096603;27;45910;-75
2023/03/13 16:31:13;;;;;;;;;1.00;1.00;;;;;28.12;35.42;99398.19;5076570;27;45652;-75
2023/03/13 16:33:39;;;;;;;;;2.00;2.00;;;;;28.22;34.93;99382.09;5077443;27;45403;-74
2023/03/13 16:36:13;;;;;;;;;1.67;1.67;;;;;28.27;35.17;99360.41;5075737;27;45454;-75
2023/03/13 16:38:39;;;;;;;;;1.00;1.00;;;;;28.30;35.34;99356.41;5073105;27;47291;-76
2023/03/13 16:41:04;;;;;;;;;2.67;1.00;;;;;28.38;34.46;99353.31;5086004;27;45791;-71
2023/03/13 16:43:30;;;;;;;;;1.67;1.67;;;;;28.41;34.07;99347.38;5073500;27;45437;-72
2023/03/13 16:45:55;;;;;;;;;1.00;1.00;;;;;28.43;34.09;99347.16;5073567;27;45415;-73
2023/03/13 17:56:35;;;;;;;;;5.00;2.00;;;;;20.22;40.47;99349.47;5107623;27;46949;-71
2023/03/13 17:59:01;;;;;;;;;3.00;2.00;;;;;20.62;41.58;99341.22;5111199;27;45421;-72
2023/03/13 18:01:28;;;;;;;;;2.33;2.33;;;;;21.23;42.42;99325.94;5106241;27;45435;-72
2023/03/13 18:03:55;;;;;;;;;1.00;1.00;;;;;22.03;42.65;99327.06;5108858;27;45411;-72
2023/03/13 18:06:27;;;;;;;;;2.00;2.00;;;;;22.74;41.41;99315.41;5106373;27;47043;-72
2023/03/13 18:08:55;;;;;;;;;1.67;1.67;;;;;23.46;40.86;99308.91;5110687;27;45564;-74
2023/03/13 18:11:23;;;;;;;;;1.67;1.67;;;;;24.05;40.37;99303.00;5106628;27;45477;-73
2023/03/13 18:13:49;;;;;;;;;5.67;3.00;;;;;24.52;39.89;99288.66;5102237;27;45453;-77
2023/03/13 18:16:23;;;;;;;;;3.33;3.00;;;;;25.00;39.29;99292.97;5096971;27;45832;-73
2023/03/13 18:18:48;;;;;;;;;2.33;2.33;;;;;25.36;38.77;99296.16;5112139;27;45804;-71
2023/03/13 18:21:14;;;;;;;;;5.67;2.00;;;;;25.70;38.09;99299.56;5106099;27;45764;-76
2023/03/13 18:23:39;;;;;;;;;3.33;2.00;;;;;25.91;37.70;99303.00;5101636;27;45538;-76
2023/03/13 18:26:26;;;;;;;;;4.00;2.33;;;;;26.25;37.45;99313.66;5110534;27;46464;-76
2023/03/13 18:28:52;;;;;;;;;3.00;3.00;;;;;26.48;37.18;99312.22;5097410;27;45400;-73
2023/03/13 18:31:17;;;;;;;;;2.67;2.67;;;;;26.62;36.99;99294.72;5107223;27;45511;-75
2023/03/13 18:33:42;;;;;;;;;2.67;2.67;;;;;26.84;36.65;99308.72;5117745;27;45407;-77
2023/03/13 18:36:17;;;;;;;;;2.33;2.00;;;;;27.02;35.98;99288.03;5110872;27;46922;-77
2023/03/13 18:38:43;;;;;;;;;4.67;2.00;;;;;27.16;36.04;99290.59;5114203;27;45471;-74
2023/03/13 18:41:09;;;;;;;;;0.67;0.67;;;;;27.25;35.99;99280.25;5102017;27;45797;-76
2023/03/13 18:43:34;;;;;;;;;1.67;1.67;;;;;27.41;35.16;99281.47;5098737;27;45492;-76
2023/03/13 18:45:59;;;;;;;;;2.33;2.00;;;;;27.53;35.08;99284.25;5100845;27;49762;-75
2023/03/13 18:48:25;;;;;;;;;1.67;1.00;;;;;27.62;34.71;99286.47;5096536;27;45489;-76
2023/03/13 18:50:50;;;;;;;;;1.00;1.00;;;;;27.70;34.74;99290.75;5098893;27;45864;-74
2023/03/13 18:53:15;;;;;;;;;2.00;1.67;;;;;27.75;34.23;99268.28;5098123;27;46312;-76
2023/03/13 18:55:41;;;;;;;;;4.00;4.00;;;;;27.80;34.61;99270.28;5096152;27;50737;-76
2023/03/13 18:58:09;;;;;;;;;3.00;3.00;;;;;27.84;33.63;99285.94;5098852;27;45929;-76
2023/03/13 19:00:34;;;;;;;;;4.00;3.00;;;;;27.81;34.30;99267.34;5100583;27;45631;-75
2023/03/13 19:03:00;;;;;;;;;1.33;1.33;;;;;27.79;33.63;99272.16;5099243;27;46992;-76
2023/03/13 19:05:25;;;;;;;;;3.00;2.00;;;;;27.83;34.00;99281.53;5097934;27;45448;-73
2023/03/13 19:07:50;;;;;;;;;2.00;2.00;;;;;27.83;34.02;99284.28;5083748;27;45387;-73
2023/03/13 19:10:25;;;;;;;;;2.00;2.00;;;;;27.87;33.56;99290.09;5085813;27;45528;-76
2023/03/13 19:12:51;;;;;;;;;2.00;2.00;;;;;27.88;33.33;99294.50;5089545;27;45572;-76
2023/03/13 19:15:17;;;;;;;;;1.00;1.00;;;;;27.89;33.01;99282.53;5082393;27;45454;-75
2023/03/13 19:17:43;;;;;;;;;1.33;1.33;;;;;27.86;32.83;99272.91;5084249;27;45807;-75
2023/03/13 19:20:14;;;;;;;;;1.67;1.67;;;;;27.91;33.48;99283.09;5091117;27;45632;-75
2023/03/13 19:22:39;;;;;;;;;1.00;1.00;;;;;27.90;33.23;99283.34;5077427;27;45834;-75
2023/03/13 19:25:06;;;;;;;;;1.67;1.67;;;;;27.90;33.00;99288.81;5091198;27;46002;-75
2023/03/13 19:27:31;;;;;;;;;2.00;1.00;;;;;27.90;32.53;99280.63;5096180;27;45381;-75
2023/03/13 19:29:56;;;;;;;;;1.33;1.00;;;;;27.90;32.55;99281.44;5079078;27;45360;-76
2023/03/13 19:32:22;;;;;;;;;1.33;1.33;;;;;27.87;32.50;99276.44;5096095;27;45326;-76